Time;durP1;ratioP1;P1;durP2;ratioP2;P2;SDS_P1;SDS_P2;PMS_P1;PMS_P2;Temp;Humidity;BMP_temperature;BMP_pressure;BME280_temperature;BME280_humidity;BME280_pressure;Samples;Min_cycle;Max_cycle;Signal;HPM_P1;HPM_P2
2022/05/07 00:01:03;;;;;;;10.63;6.73;;;15.70;92.30;;;;;;5055490;28;20453;-41
2022/05/07 00:03:29;;;;;;;8.67;6.80;;;15.70;92.80;;;;;;5055606;28;20456;-48
2022/05/07 00:05:56;;;;;;;9.70;5.13;;;15.70;92.80;;;;;;5055922;28;20440;-42
2022/05/07 00:08:25;;;;;;;11.23;5.40;;;15.60;92.80;;;;;;5057120;28;20471;-41
2022/05/07 00:10:52;;;;;;;4.67;4.20;;;15.70;92.80;;;;;;5059786;28;20423;-45
2022/05/07 00:13:20;;;;;;;6.20;4.23;;;15.70;92.90;;;;;;5059424;28;20428;-41
2022/05/07 00:18:30;;;;;;;8.63;4.87;;;15.60;93.20;;;;;;5016284;28;20456;-38
2022/05/07 00:20:59;;;;;;;5.03;3.73;;;15.60;93.10;;;;;;5059260;28;20499;-45
2022/05/07 00:23:26;;;;;;;6.40;4.70;;;15.50;93.40;;;;;;5059357;28;20420;-41
2022/05/07 00:25:53;;;;;;;6.47;4.73;;;15.50;93.70;;;;;;5059059;28;20471;-40
2022/05/07 00:28:21;;;;;;;7.10;5.73;;;15.50;94.00;;;;;;5058907;28;20454;-39
2022/05/07 00:30:48;;;;;;;8.00;5.97;;;15.40;94.30;;;;;;5058664;28;20527;-42
2022/05/07 00:33:17;;;;;;;7.73;5.10;;;15.40;94.60;;;;;;5059187;28;20421;-45
2022/05/07 00:35:44;;;;;;;7.60;5.43;;;15.40;94.90;;;;;;5058938;28;20483;-43
2022/05/07 00:38:12;;;;;;;6.13;5.03;;;15.30;95.00;;;;;;5059040;28;20475;-37
2022/05/07 00:40:41;;;;;;;11.43;5.37;;;15.30;95.30;;;;;;5059072;28;20451;-41
2022/05/07 00:43:08;;;;;;;6.00;5.30;;;15.20;95.40;;;;;;5058570;28;20452;-40
2022/05/07 00:45:37;;;;;;;6.73;4.30;;;15.20;95.60;;;;;;5058883;28;20503;-37
2022/05/07 00:48:04;;;;;;;7.97;4.73;;;15.20;95.80;;;;;;5058468;28;20472;-40
2022/05/07 00:53:15;;;;;;;7.60;5.20;;;15.20;96.10;;;;;;5058469;28;20447;-41
2022/05/07 00:55:42;;;;;;;5.40;4.30;;;15.20;96.30;;;;;;5058664;28;20465;-44
2022/05/07 00:58:09;;;;;;;6.20;5.10;;;15.20;96.50;;;;;;5058606;28;20447;-38
2022/05/07 01:00:37;;;;;;;4.60;3.73;;;15.20;96.80;;;;;;5059014;28;20462;-42
2022/05/07 01:03:04;;;;;;;7.17;4.90;;;15.20;96.80;;;;;;5058697;28;20471;-39
2022/05/07 01:05:31;;;;;;;10.33;4.77;;;15.20;97.00;;;;;;5058674;28;20455;-39
2022/05/07 01:07:58;;;;;;;9.00;5.13;;;15.20;97.00;;;;;;5058262;28;20448;-45
2022/05/07 01:10:25;;;;;;;4.47;4.07;;;15.20;97.20;;;;;;5058558;28;20440;-42
2022/05/07 01:12:52;;;;;;;9.00;4.80;;;15.20;97.40;;;;;;5058671;28;20440;-44
2022/05/07 01:15:19;;;;;;;6.47;4.03;;;15.20;97.50;;;;;;5058453;28;20480;-44
2022/05/07 01:17:47;;;;;;;5.73;4.50;;;15.20;97.40;;;;;;5058988;28;20462;-49
2022/05/07 01:20:18;;;;;;;6.37;4.67;;;15.20;97.30;;;;;;5057369;28;20524;-36
2022/05/07 01:22:47;;;;;;;5.57;4.67;;;15.20;97.80;;;;;;5058627;28;20475;-42
2022/05/07 01:25:14;;;;;;;4.47;3.97;;;15.30;97.50;;;;;;5058312;28;20455;-46
2022/05/07 01:27:41;;;;;;;6.73;5.10;;;15.30;97.80;;;;;;5058172;28;20451;-41
2022/05/07 01:30:08;;;;;;;7.00;5.27;;;15.20;97.60;;;;;;5058091;28;20464;-42
2022/05/07 01:32:35;;;;;;;7.93;5.10;;;15.30;97.60;;;;;;5058461;28;20428;-38
2022/05/07 01:35:02;;;;;;;5.33;4.50;;;15.30;97.50;;;;;;5058224;28;20476;-42
2022/05/07 01:37:29;;;;;;;7.03;4.70;;;15.30;97.70;;;;;;5058098;28;20444;-42
2022/05/07 01:39:57;;;;;;;7.87;5.13;;;15.30;97.70;;;;;;5058200;28;20456;-41
2022/05/07 01:42:24;;;;;;;5.60;4.73;;;15.20;98.00;;;;;;5057865;28;20456;-44
2022/05/07 01:44:50;;;;;;;8.43;4.87;;;15.20;98.40;;;;;;5057515;28;20454;-47
2022/05/07 01:50:02;;;;;;;6.30;4.53;;;15.10;98.90;;;;;;5057856;28;20474;-47
2022/05/07 01:52:28;;;;;;;4.87;4.40;;;15.00;99.30;;;;;;5057644;28;20456;-44
2022/05/07 01:54:56;;;;;;;5.37;4.73;;;15.00;99.60;;;;;;5057966;28;20491;-41
2022/05/07 01:57:25;;;;;;;9.60;5.60;;;15.10;99.90;;;;;;5057485;28;20474;-42
2022/05/07 01:59:52;;;;;;;6.53;4.73;;;15.10;99.90;;;;;;5057530;28;20491;-42
2022/05/07 02:02:18;;;;;;;6.50;4.20;;;15.10;99.90;;;;;;5057958;28;20440;-42
2022/05/07 02:04:45;;;;;;;6.50;5.00;;;15.10;99.90;;;;;;5057573;28;20468;-44
2022/05/07 02:07:11;;;;;;;6.87;5.20;;;15.00;99.90;;;;;;5057358;28;20472;-43
2022/05/07 02:09:38;;;;;;;6.37;5.20;;;15.00;99.90;;;;;;5057595;28;20464;-44
2022/05/07 02:12:07;;;;;;;8.70;5.50;;;15.00;99.90;;;;;;5057308;28;20428;-44
2022/05/07 02:14:37;;;;;;;6.63;4.93;;;15.00;99.90;;;;;;5057544;28;20487;-47
2022/05/07 02:17:04;;;;;;;7.17;4.70;;;15.00;99.90;;;;;;5057477;28;20475;-40
2022/05/07 02:19:33;;;;;;;5.67;4.07;;;15.00;99.90;;;;;;5057095;28;20444;-48
2022/05/07 02:21:59;;;;;;;5.70;4.37;;;15.00;99.90;;;;;;5056955;28;20416;-45
2022/05/07 02:24:26;;;;;;;7.03;4.70;;;15.00;99.90;;;;;;5057530;28;20440;-43
2022/05/07 02:26:56;;;;;;;9.63;4.40;;;15.00;99.90;;;;;;5057843;28;20417;-40
2022/05/07 02:29:24;;;;;;;5.20;4.70;;;15.00;99.90;;;;;;5057656;28;20440;-39
2022/05/07 02:32:04;;;;;;;5.10;4.47;;;15.00;99.90;;;;;;5057545;28;20416;-46
2022/05/07 02:34:32;;;;;;;6.13;5.20;;;14.90;99.90;;;;;;5057254;28;20460;-42
2022/05/07 02:36:58;;;;;;;9.50;5.20;;;14.90;99.90;;;;;;5057560;28;20425;-41
2022/05/07 02:39:28;;;;;;;5.43;3.90;;;14.90;99.90;;;;;;5057144;28;20436;-41
2022/05/07 02:44:43;;;;;;;4.53;4.10;;;14.90;99.90;;;;;;5057321;28;20415;-42
2022/05/07 02:47:10;;;;;;;6.23;4.13;;;15.00;99.90;;;;;;5057305;28;20491;-45
2022/05/07 02:49:42;;;;;;;5.87;4.97;;;15.00;99.90;;;;;;5056856;28;20482;-41
2022/05/07 02:52:09;;;;;;;7.27;4.07;;;15.00;99.90;;;;;;5057210;28;20438;-40
2022/05/07 02:54:36;;;;;;;6.97;5.80;;;15.00;99.90;;;;;;5056914;28;20518;-44
2022/05/07 02:57:05;;;;;;;8.63;4.80;;;15.00;99.90;;;;;;5057248;28;20497;-43
2022/05/07 02:59:33;;;;;;;4.80;4.23;;;15.00;99.90;;;;;;5057219;28;20444;-47
2022/05/07 03:02:01;;;;;;;5.37;4.50;;;15.00;99.90;;;;;;5057245;28;20444;-46
2022/05/07 03:04:28;;;;;;;6.83;5.13;;;15.00;99.90;;;;;;5057051;28;20456;-41
2022/05/07 03:06:57;;;;;;;5.30;4.17;;;15.00;99.90;;;;;;5057314;28;20447;-46
2022/05/07 03:09:26;;;;;;;6.53;4.60;;;15.00;99.90;;;;;;5057282;28;20502;-48
2022/05/07 03:11:53;;;;;;;5.47;4.60;;;15.00;99.90;;;;;;5057333;28;20544;-38
2022/05/07 03:14:19;;;;;;;10.40;4.90;;;15.00;99.90;;;;;;5056848;28;20464;-42
2022/05/07 03:16:48;;;;;;;5.40;4.50;;;15.00;99.90;;;;;;5056933;28;20479;-42
2022/05/07 03:19:17;;;;;;;5.87;5.17;;;14.90;99.90;;;;;;5057234;28;20444;-42
2022/05/07 03:21:44;;;;;;;6.30;5.13;;;15.00;99.90;;;;;;5056643;28;20464;-39
2022/05/07 03:24:10;;;;;;;8.43;4.83;;;15.00;99.90;;;;;;5056756;28;20444;-44
2022/05/07 03:26:37;;;;;;;4.70;3.90;;;15.00;99.90;;;;;;5056615;28;20468;-47
2022/05/07 03:29:06;;;;;;;7.60;4.13;;;15.00;99.90;;;;;;5056807;28;20467;-42
2022/05/07 03:31:34;;;;;;;4.73;3.93;;;15.00;99.90;;;;;;5056736;28;20468;-45
2022/05/07 03:34:01;;;;;;;5.20;4.23;;;14.90;99.90;;;;;;5056551;28;20435;-43
2022/05/07 03:36:30;;;;;;;6.17;4.37;;;14.90;99.90;;;;;;5056298;28;20510;-46
2022/05/07 03:38:56;;;;;;;4.50;3.63;;;14.90;99.90;;;;;;5056411;28;20436;-43
2022/05/07 03:41:23;;;;;;;4.43;4.03;;;14.90;99.90;;;;;;5056490;28;20459;-43
2022/05/07 03:43:54;;;;;;;5.10;4.00;;;14.90;99.90;;;;;;5058327;28;20485;-45
2022/05/07 03:46:25;;;;;;;4.40;3.90;;;14.80;99.90;;;;;;5060075;28;20872;-45
2022/05/07 03:48:52;;;;;;;4.77;4.10;;;14.80;99.90;;;;;;5060212;28;20396;-42
2022/05/07 03:51:19;;;;;;;6.37;4.03;;;14.80;99.90;;;;;;5060131;28;20463;-42
2022/05/07 03:53:46;;;;;;;5.00;4.23;;;14.80;99.90;;;;;;5060263;28;20470;-45
2022/05/07 03:56:17;;;;;;;4.27;3.33;;;14.80;99.90;;;;;;5060235;28;20504;-40
2022/05/07 03:58:43;;;;;;;6.30;4.40;;;14.80;99.90;;;;;;5060306;28;20446;-41
2022/05/07 04:01:10;;;;;;;6.20;5.60;;;14.70;99.90;;;;;;5060123;28;20460;-39
2022/05/07 04:03:37;;;;;;;4.63;4.17;;;14.60;99.90;;;;;;5060424;28;20459;-42
2022/05/07 04:06:04;;;;;;;5.10;4.00;;;14.60;99.90;;;;;;5059991;28;20587;-42
2022/05/07 04:08:31;;;;;;;6.40;4.60;;;14.60;99.90;;;;;;5059612;28;20448;-47
2022/05/07 04:10:59;;;;;;;5.03;4.30;;;14.50;99.90;;;;;;5059840;28;20454;-43
2022/05/07 04:13:25;;;;;;;5.73;3.60;;;14.60;99.90;;;;;;5059868;28;20421;-48
2022/05/07 04:15:52;;;;;;;4.43;3.60;;;14.50;99.90;;;;;;5059833;28;20483;-43
2022/05/07 04:18:20;;;;;;;6.30;4.77;;;14.50;99.90;;;;;;5059667;28;20436;-44
2022/05/07 04:20:46;;;;;;;6.03;4.83;;;14.50;99.90;;;;;;5059656;28;20452;-42
2022/05/07 04:23:13;;;;;;;6.33;3.83;;;14.50;99.90;;;;;;5059751;28;20428;-40
2022/05/07 04:25:42;;;;;;;4.33;3.90;;;14.50;99.90;;;;;;5059717;28;20428;-42
2022/05/07 04:28:14;;;;;;;3.90;3.57;;;14.50;99.90;;;;;;5059510;28;20455;-40
2022/05/07 04:30:41;;;;;;;4.80;3.80;;;14.50;99.90;;;;;;5059716;28;20420;-42
2022/05/07 04:33:07;;;;;;;6.20;4.10;;;14.50;99.90;;;;;;5059324;28;20454;-40
2022/05/07 04:35:34;;;;;;;9.50;4.17;;;14.50;99.90;;;;;;5058859;28;20508;-44
2022/05/07 04:38:01;;;;;;;6.90;4.07;;;14.50;99.90;;;;;;5059022;28;20417;-40
2022/05/07 04:40:34;;;;;;;5.30;4.70;;;14.60;99.90;;;;;;5059387;28;20463;-42
2022/05/07 04:43:00;;;;;;;8.97;4.93;;;14.60;99.90;;;;;;5059520;28;20435;-44
2022/05/07 04:45:35;;;;;;;5.73;4.10;;;14.60;99.90;;;;;;5059515;28;20444;-47
2022/05/07 04:48:04;;;;;;;6.33;4.20;;;14.70;99.90;;;;;;5059199;28;20439;-41
2022/05/07 04:50:34;;;;;;;5.67;4.30;;;14.70;99.90;;;;;;5058907;28;20463;-43
2022/05/07 04:53:01;;;;;;;6.03;4.17;;;14.80;99.90;;;;;;5058821;28;20428;-41
2022/05/07 04:55:35;;;;;;;6.20;4.10;;;14.90;99.90;;;;;;5058702;28;20484;-47
2022/05/07 04:58:01;;;;;;;7.80;4.20;;;14.80;99.90;;;;;;5059267;28;20473;-44
2022/05/07 05:00:29;;;;;;;6.87;4.50;;;14.80;99.90;;;;;;5057893;28;20432;-44
2022/05/07 05:02:56;;;;;;;8.17;5.00;;;14.80;99.90;;;;;;5058617;28;20483;-44
2022/05/07 05:05:25;;;;;;;4.43;3.90;;;14.80;99.90;;;;;;5058696;28;20970;-42
2022/05/07 05:07:52;;;;;;;6.93;4.67;;;14.80;99.90;;;;;;5058773;28;20440;-43
2022/05/07 05:10:22;;;;;;;6.97;4.53;;;14.80;99.90;;;;;;5058847;28;20432;-41
2022/05/07 05:12:49;;;;;;;6.23;4.73;;;14.80;99.90;;;;;;5058374;28;20467;-42
2022/05/07 05:15:15;;;;;;;8.93;4.63;;;14.90;99.90;;;;;;5058483;28;20897;-43
2022/05/07 05:17:43;;;;;;;5.40;3.97;;;14.90;99.90;;;;;;5058266;28;20495;-43
2022/05/07 05:20:11;;;;;;;4.77;3.80;;;15.00;99.90;;;;;;5058151;28;20463;-44
2022/05/07 05:22:45;;;;;;;7.67;4.50;;;15.10;99.90;;;;;;5058455;28;20456;-46
2022/05/07 05:25:15;;;;;;;6.80;4.10;;;15.10;99.90;;;;;;5058364;28;20417;-46
2022/05/07 05:27:41;;;;;;;6.57;4.63;;;15.20;99.90;;;;;;5058147;28;20524;-44
2022/05/07 05:30:09;;;;;;;8.17;4.63;;;15.20;99.90;;;;;;5058813;28;20424;-41
2022/05/07 05:32:36;;;;;;;7.57;5.20;;;15.30;99.90;;;;;;5058205;28;20460;-42
2022/05/07 05:35:05;;;;;;;7.70;4.40;;;15.40;99.90;;;;;;5057747;28;20460;-45
2022/05/07 05:37:32;;;;;;;6.60;4.47;;;15.40;99.90;;;;;;5057683;28;20479;-41
2022/05/07 05:39:58;;;;;;;8.50;4.47;;;15.40;99.90;;;;;;5058105;28;20954;-43
2022/05/07 05:42:25;;;;;;;9.90;4.50;;;15.50;99.90;;;;;;5057639;28;20464;-38
2022/05/07 05:44:52;;;;;;;5.57;3.93;;;15.60;99.90;;;;;;5057834;28;20440;-44
2022/05/07 05:47:22;;;;;;;5.40;3.60;;;15.60;99.90;;;;;;5057928;28;20456;-42
2022/05/07 05:49:49;;;;;;;8.03;5.40;;;15.70;99.90;;;;;;5057695;28;20444;-46
2022/05/07 05:52:17;;;;;;;4.60;3.87;;;15.80;99.90;;;;;;5057706;28;20468;-38
2022/05/07 05:54:43;;;;;;;4.30;3.67;;;15.90;99.90;;;;;;5057721;28;20882;-50
2022/05/07 05:57:12;;;;;;;6.47;4.20;;;16.00;99.90;;;;;;5057496;28;20499;-48
2022/05/07 05:59:39;;;;;;;7.33;4.27;;;16.00;99.90;;;;;;5057447;28;20448;-47
2022/05/07 06:02:06;;;;;;;6.10;4.30;;;16.10;99.90;;;;;;5057308;28;20450;-42
2022/05/07 06:04:33;;;;;;;4.27;3.87;;;16.20;99.90;;;;;;5057197;28;20428;-42
2022/05/07 06:07:00;;;;;;;8.37;4.30;;;16.30;99.90;;;;;;5056833;28;20447;-42
2022/05/07 06:09:28;;;;;;;5.30;4.10;;;16.30;99.90;;;;;;5057503;28;20464;-42
2022/05/07 06:11:59;;;;;;;6.50;3.83;;;16.40;99.90;;;;;;5057813;28;20428;-41
2022/05/07 06:14:26;;;;;;;5.43;3.40;;;16.40;99.90;;;;;;5057452;28;20496;-45
2022/05/07 06:16:53;;;;;;;5.00;3.53;;;16.50;99.90;;;;;;5057148;28;20480;-47
2022/05/07 06:19:19;;;;;;;5.20;3.80;;;16.60;99.90;;;;;;5057132;28;20444;-46
2022/05/07 06:21:46;;;;;;;5.67;4.60;;;16.60;99.90;;;;;;5057477;28;20429;-47
2022/05/07 06:29:43;;;;;;;5.43;4.20;;;16.90;99.90;;;;;;5057530;28;20435;-51
2022/05/07 06:32:17;;;;;;;5.10;4.40;;;17.00;99.90;;;;;;5057294;28;20467;-47
2022/05/07 06:34:44;;;;;;;4.23;3.00;;;17.10;99.90;;;;;;5056988;28;20465;-41
2022/05/07 06:37:11;;;;;;;4.10;3.60;;;17.20;99.90;;;;;;5056772;28;20531;-44
2022/05/07 06:39:38;;;;;;;5.43;3.80;;;17.30;99.90;;;;;;5056776;28;20474;-44
2022/05/07 06:42:07;;;;;;;4.83;4.40;;;17.40;99.90;;;;;;5056911;28;20444;-41
2022/05/07 06:44:34;;;;;;;4.90;3.67;;;17.60;99.90;;;;;;5057148;28;20452;-44
2022/05/07 06:47:01;;;;;;;7.40;4.73;;;17.70;99.90;;;;;;5057148;28;20507;-44
2022/05/07 06:49:28;;;;;;;4.57;4.10;;;17.90;99.90;;;;;;5057190;28;20428;-45
2022/05/07 06:51:54;;;;;;;7.60;4.10;;;18.10;99.90;;;;;;5056829;28;20435;-46
2022/05/07 06:54:22;;;;;;;4.57;3.93;;;18.40;99.90;;;;;;5056923;28;20551;-45
2022/05/07 06:56:48;;;;;;;4.23;3.83;;;18.70;99.90;;;;;;5056533;28;20506;-41
2022/05/07 06:59:17;;;;;;;5.03;3.80;;;19.00;99.40;;;;;;5056892;28;20428;-45
2022/05/07 07:01:44;;;;;;;5.43;4.30;;;19.20;98.30;;;;;;5056713;28;20475;-37
2022/05/07 07:04:10;;;;;;;6.33;3.57;;;19.40;97.40;;;;;;5056802;28;20487;-37
2022/05/07 07:06:37;;;;;;;3.73;3.43;;;19.60;96.50;;;;;;5056888;28;20459;-45
2022/05/07 07:09:07;;;;;;;3.57;2.97;;;19.80;95.80;;;;;;5056956;28;20466;-41
2022/05/07 07:11:34;;;;;;;3.90;2.90;;;20.00;94.90;;;;;;5056635;28;20421;-48
2022/05/07 07:14:02;;;;;;;4.83;3.10;;;20.20;94.30;;;;;;5056892;28;20448;-45
2022/05/07 07:16:30;;;;;;;3.47;2.60;;;20.40;93.80;;;;;;5056851;28;20460;-44
2022/05/07 07:18:57;;;;;;;4.43;3.00;;;20.60;93.20;;;;;;5059576;28;20464;-45
2022/05/07 07:21:24;;;;;;;5.10;3.10;;;20.90;92.30;;;;;;5061240;28;20532;-44
2022/05/07 07:23:51;;;;;;;5.53;3.03;;;21.00;91.50;;;;;;5060895;28;20464;-44
2022/05/07 07:26:18;;;;;;;4.97;3.40;;;21.20;90.40;;;;;;5060745;28;20535;-39
2022/05/07 07:28:45;;;;;;;3.13;2.83;;;21.20;89.90;;;;;;5060992;28;20462;-42
2022/05/07 07:31:12;;;;;;;3.47;2.80;;;21.10;89.00;;;;;;5061084;28;20441;-45
2022/05/07 07:33:41;;;;;;;4.73;3.30;;;21.20;88.00;;;;;;5061033;28;20452;-41
2022/05/07 07:36:09;;;;;;;3.77;2.50;;;21.30;85.70;;;;;;5061036;28;20535;-49
2022/05/07 07:38:35;;;;;;;5.47;2.57;;;21.40;84.90;;;;;;5060879;28;20455;-45
2022/05/07 07:41:03;;;;;;;6.10;2.93;;;21.60;85.30;;;;;;5060919;28;20431;-45
2022/05/07 07:43:30;;;;;;;4.03;2.40;;;22.10;84.70;;;;;;5060975;28;20448;-40
2022/05/07 07:48:47;;;;;;;3.50;3.00;;;24.40;75.30;;;;;;5005300;28;20529;-53
2022/05/07 07:51:13;;;;;;;5.27;2.80;;;25.40;69.30;;;;;;5060616;28;20524;-44
2022/05/07 07:53:42;;;;;;;3.60;2.80;;;26.00;67.00;;;;;;5060743;28;20468;-41
2022/05/07 07:56:09;;;;;;;3.17;2.80;;;26.10;65.40;;;;;;5060763;28;20552;-38
2022/05/07 07:58:35;;;;;;;3.63;3.13;;;25.80;63.80;;;;;;5060259;28;20455;-46
2022/05/07 08:01:02;;;;;;;4.87;3.50;;;25.50;64.10;;;;;;5060098;28;20443;-44
2022/05/07 08:03:32;;;;;;;5.90;2.97;;;25.30;63.90;;;;;;5060185;28;20440;-38
2022/05/07 08:06:00;;;;;;;3.67;2.33;;;25.20;62.80;;;;;;5060353;28;20425;-43
2022/05/07 08:13:56;;;;;;;3.60;3.30;;;26.40;61.40;;;;;;5060179;28;20427;-44
2022/05/07 08:16:24;;;;;;;4.40;3.23;;;27.20;58.80;;;;;;5060011;28;20497;-43
2022/05/07 08:21:27;;;;;;;5.37;3.60;;;29.00;55.00;;;;;;5076231;28;20484;-46
2022/05/07 08:23:54;;;;;;;3.67;2.80;;;29.80;52.40;;;;;;5079032;28;20435;-41
2022/05/07 08:26:20;;;;;;;5.57;4.20;;;30.50;50.30;;;;;;5079172;28;20447;-41
2022/05/07 08:28:47;;;;;;;3.70;3.40;;;31.00;49.60;;;;;;5077991;28;20475;-41
2022/05/07 08:31:21;;;;;;;4.00;3.50;;;31.80;47.70;;;;;;5078854;28;20422;-46
2022/05/07 08:33:54;;;;;;;5.23;3.93;;;32.20;46.00;;;;;;5079225;28;20451;-39
2022/05/07 08:36:21;;;;;;;4.00;3.57;;;32.40;45.10;;;;;;5078812;28;20431;-41
2022/05/07 08:38:49;;;;;;;3.90;3.17;;;32.70;43.50;;;;;;5078923;28;20453;-48
2022/05/07 08:41:16;;;;;;;4.10;3.70;;;32.80;43.30;;;;;;5078860;28;20459;-49
2022/05/07 08:43:43;;;;;;;3.93;3.40;;;32.90;42.90;;;;;;5079034;28;20439;-45
2022/05/07 08:46:16;;;;;;;5.10;3.70;;;33.30;41.90;;;;;;5078543;28;20520;-44
2022/05/07 08:48:47;;;;;;;6.50;3.30;;;33.20;41.80;;;;;;5079141;28;20440;-48
2022/05/07 08:51:15;;;;;;;3.93;2.90;;;33.30;41.50;;;;;;5079229;28;20431;-43
2022/05/07 08:53:45;;;;;;;4.53;3.50;;;33.30;41.10;;;;;;5079087;28;20458;-46
2022/05/07 08:56:16;;;;;;;4.03;3.23;;;33.50;40.60;;;;;;5078677;28;20450;-49
2022/05/07 08:58:47;;;;;;;3.60;3.03;;;33.70;40.80;;;;;;5078699;28;20435;-47
2022/05/07 09:01:14;;;;;;;4.80;3.80;;;33.70;40.70;;;;;;5079011;28;20455;-46
2022/05/07 09:03:43;;;;;;;6.47;4.30;;;33.20;40.60;;;;;;5078830;28;20446;-43
2022/05/07 09:06:21;;;;;;;4.50;4.07;;;32.40;40.30;;;;;;5078755;28;20428;-44
2022/05/07 09:08:51;;;;;;;4.70;3.30;;;30.80;41.60;;;;;;5078990;28;20472;-38
2022/05/07 09:11:20;;;;;;;6.47;3.20;;;29.30;42.70;;;;;;5079077;28;20430;-44
2022/05/07 09:13:48;;;;;;;6.37;3.70;;;28.30;44.80;;;;;;5078988;28;20454;-41
2022/05/07 09:16:15;;;;;;;8.20;4.83;;;28.20;45.20;;;;;;5078919;28;20443;-46
2022/05/07 09:18:48;;;;;;;6.40;3.90;;;28.30;45.40;;;;;;5079026;28;20447;-45
2022/05/07 09:21:19;;;;;;;4.33;3.67;;;27.80;45.40;;;;;;5079176;28;20451;-51
2022/05/07 09:23:47;;;;;;;8.00;3.90;;;27.50;46.10;;;;;;5078464;28;20431;-48
2022/05/07 09:26:34;;;;;;;5.27;4.30;;;27.20;46.10;;;;;;5078266;28;20469;-37
2022/05/07 09:29:03;;;;;;;4.43;3.60;;;27.00;46.90;;;;;;5078561;28;20443;-43
2022/05/07 09:31:31;;;;;;;4.20;3.53;;;26.70;47.40;;;;;;5078056;28;20466;-44
2022/05/07 09:35:47;;;;;;;5.93;3.40;;;26.30;48.00;;;;;;5078480;28;20447;-45
2022/05/07 09:36:46;;;;;;;4.40;3.33;;;26.30;48.40;;;;;;5078059;28;20459;-46
2022/05/07 09:39:14;;;;;;;5.33;4.00;;;26.40;49.00;;;;;;5078344;28;20446;-38
2022/05/07 09:41:44;;;;;;;3.70;3.37;;;27.20;48.30;;;;;;5077577;28;20197;-44
2022/05/07 09:44:11;;;;;;;4.47;3.37;;;28.30;47.50;;;;;;5078786;28;20431;-46
2022/05/07 09:46:39;;;;;;;10.50;4.70;;;29.30;45.60;;;;;;5077991;28;20463;-44
2022/05/07 09:49:06;;;;;;;4.73;4.00;;;29.90;44.70;;;;;;5078376;28;20427;-45
2022/05/07 09:51:33;;;;;;;7.73;3.23;;;30.60;43.50;;;;;;5078400;28;20451;-40
2022/05/07 09:59:48;;;;;;;5.20;3.50;;;32.00;40.90;;;;;;5016750;28;20440;-43
2022/05/07 10:02:24;;;;;;;4.90;4.40;;;31.10;41.30;;;;;;5016679;28;20532;-41
2022/05/07 10:05:21;;;;;;;4.53;4.10;;;29.80;42.50;;;;;;5048000;28;20473;-41
2022/05/07 10:08:06;;;;;;;4.43;4.00;;;28.60;45.00;;;;;;5077418;28;20494;-39
2022/05/07 10:10:37;;;;;;;6.50;3.87;;;28.90;45.00;;;;;;5076955;28;20463;-41
2022/05/07 10:13:06;;;;;;;6.80;3.90;;;28.80;45.40;;;;;;5077565;28;20412;-48
2022/05/07 10:15:35;;;;;;;6.20;3.70;;;28.40;46.40;;;;;;5076993;28;20463;-50
2022/05/07 10:18:07;;;;;;;5.77;3.70;;;27.70;46.90;;;;;;5077246;28;20451;-40
2022/05/07 10:20:43;;;;;;;7.97;4.30;;;27.00;47.90;;;;;;5076990;28;20475;-41
2022/05/07 10:23:11;;;;;;;4.30;3.40;;;27.00;48.80;;;;;;5077258;28;20431;-46
2022/05/07 10:25:38;;;;;;;6.83;4.20;;;27.50;48.60;;;;;;5076904;28;20506;-51
2022/05/07 10:28:11;;;;;;;3.87;3.50;;;28.10;48.10;;;;;;5076807;28;20455;-46
2022/05/07 10:30:51;;;;;;;3.57;3.13;;;28.80;47.00;;;;;;5076701;28;20461;-48
2022/05/07 10:33:24;;;;;;;4.00;3.60;;;29.40;46.30;;;;;;5076357;28;20423;-43
2022/05/07 10:35:53;;;;;;;4.40;3.23;;;29.70;44.60;;;;;;5076790;28;20498;-40
2022/05/07 10:38:28;;;;;;;4.30;3.60;;;29.40;44.50;;;;;;5076352;28;20431;-45
2022/05/07 10:40:56;;;;;;;4.47;3.80;;;28.40;45.50;;;;;;5076584;28;20474;-43
2022/05/07 10:43:32;;;;;;;4.00;3.60;;;27.60;46.80;;;;;;5076432;28;20451;-42
2022/05/07 10:46:04;;;;;;;6.33;3.80;;;26.60;48.20;;;;;;5076711;28;20531;-54
2022/05/07 10:48:42;;;;;;;4.83;3.53;;;25.70;49.50;;;;;;5076430;28;20482;-43
2022/05/07 10:51:18;;;;;;;4.23;3.27;;;25.20;51.30;;;;;;5077478;28;20451;-47
2022/05/07 10:53:45;;;;;;;5.30;4.13;;;24.80;51.80;;;;;;5077470;28;20806;-45
2022/05/07 10:56:13;;;;;;;6.53;3.47;;;24.70;52.70;;;;;;5077452;28;20778;-40
2022/05/07 10:58:46;;;;;;;7.53;3.57;;;25.10;53.30;;;;;;5077277;28;20514;-40
2022/05/07 11:01:14;;;;;;;4.03;3.63;;;25.10;52.00;;;;;;5076921;28;20455;-55
2022/05/07 11:03:42;;;;;;;4.40;3.63;;;25.10;51.70;;;;;;5076559;28;20479;-41
2022/05/07 11:06:09;;;;;;;9.40;3.37;;;25.10;51.90;;;;;;5076278;28;20451;-42
2022/05/07 11:08:47;;;;;;;4.17;3.77;;;25.00;52.00;;;;;;5076555;28;20483;-46
2022/05/07 11:11:14;;;;;;;4.70;3.47;;;24.80;52.30;;;;;;5076211;28;20463;-39
2022/05/07 11:13:51;;;;;;;7.23;3.87;;;24.70;53.20;;;;;;5076196;28;20451;-43
2022/05/07 11:16:19;;;;;;;5.50;3.80;;;24.60;53.30;;;;;;5076274;28;20471;-41
2022/05/07 11:18:49;;;;;;;5.30;4.00;;;24.40;53.80;;;;;;5076177;28;20440;-46
2022/05/07 11:21:16;;;;;;;7.73;4.20;;;24.10;54.40;;;;;;5076568;28;20478;-47
2022/05/07 11:23:43;;;;;;;4.90;3.27;;;23.90;54.60;;;;;;5076953;28;20443;-42
2022/05/07 11:26:14;;;;;;;4.17;3.40;;;23.70;55.10;;;;;;5076295;28;20478;-42
2022/05/07 11:28:44;;;;;;;9.50;4.10;;;23.60;56.20;;;;;;5076509;28;20742;-42
2022/05/07 11:31:15;;;;;;;3.60;3.30;;;23.80;56.40;;;;;;5076623;28;20463;-46
2022/05/07 11:33:42;;;;;;;5.13;3.27;;;24.20;55.30;;;;;;5075674;28;20439;-41
2022/05/07 11:36:12;;;;;;;4.17;3.43;;;24.40;55.30;;;;;;5075659;28;20451;-41
2022/05/07 11:38:39;;;;;;;4.70;3.73;;;24.50;54.80;;;;;;5076140;28;20411;-40
2022/05/07 11:41:10;;;;;;;3.97;3.57;;;24.60;54.90;;;;;;5075617;28;20489;-48
2022/05/07 11:46:26;;;;;;;5.60;2.90;;;24.90;53.90;;;;;;5075768;28;20458;-43
2022/05/07 11:49:05;;;;;;;6.17;4.03;;;24.90;54.10;;;;;;5075402;28;20481;-47
2022/05/07 11:51:33;;;;;;;4.50;4.10;;;24.90;53.80;;;;;;5076017;28;20443;-41
2022/05/07 11:54:09;;;;;;;5.00;3.73;;;24.80;54.00;;;;;;5075584;28;20493;-45
2022/05/07 11:56:46;;;;;;;5.77;4.70;;;24.70;54.80;;;;;;5075293;28;20493;-42
2022/05/07 11:59:15;;;;;;;5.93;5.00;;;24.50;55.20;;;;;;5075596;28;20439;-39
2022/05/07 12:01:49;;;;;;;4.67;3.67;;;24.50;55.30;;;;;;5075523;28;20487;-41
2022/05/07 12:04:15;;;;;;;4.40;3.80;;;24.70;55.70;;;;;;5077262;28;20442;-39
2022/05/07 12:06:53;;;;;;;4.20;3.37;;;24.70;54.80;;;;;;5079017;28;20443;-40
2022/05/07 12:09:27;;;;;;;5.10;3.87;;;24.80;54.90;;;;;;5078763;28;20499;-39
2022/05/07 12:11:55;;;;;;;4.87;4.00;;;24.80;54.80;;;;;;5079137;28;20497;-41
2022/05/07 12:14:22;;;;;;;7.70;4.57;;;24.80;55.50;;;;;;5079393;28;20447;-44
2022/05/07 12:19:35;;;;;;;4.10;3.70;;;25.10;55.10;;;;;;5079036;28;20469;-45
2022/05/07 12:30:26;;;;;;;3.90;3.50;;;25.20;54.40;;;;;;5018386;28;20468;-42
2022/05/07 12:32:55;;;;;;;4.87;3.70;;;25.20;53.70;;;;;;5064794;28;20443;-41
2022/05/07 12:35:22;;;;;;;7.60;3.60;;;25.00;54.50;;;;;;5078980;28;20448;-40
2022/05/07 12:37:48;;;;;;;7.63;2.97;;;25.00;54.90;;;;;;5078827;28;20455;-44
2022/05/07 12:40:15;;;;;;;6.57;4.53;;;25.10;55.30;;;;;;5079253;28;20897;-44
2022/05/07 12:42:42;;;;;;;5.40;3.27;;;25.30;54.90;;;;;;5078936;28;20497;-42
2022/05/07 12:45:10;;;;;;;3.40;3.10;;;25.30;54.30;;;;;;5078977;28;20440;-44
2022/05/07 12:47:37;;;;;;;3.63;3.20;;;25.20;54.70;;;;;;5078710;28;20467;-45
2022/05/07 12:50:06;;;;;;;7.53;5.90;;;25.00;54.50;;;;;;5079014;28;20443;-49
2022/05/07 12:52:36;;;;;;;5.93;2.60;;;24.80;54.90;;;;;;5078958;28;20457;-38
2022/05/07 12:55:03;;;;;;;5.30;3.83;;;24.70;54.70;;;;;;5078331;28;20444;-43
2022/05/07 12:57:30;;;;;;;7.60;3.80;;;24.70;55.40;;;;;;5078061;28;20471;-40
2022/05/07 13:00:00;;;;;;;4.53;3.97;;;24.70;55.30;;;;;;5078646;28;20447;-42
2022/05/07 13:02:27;;;;;;;3.50;3.10;;;24.70;55.80;;;;;;5079261;28;20447;-39
2022/05/07 13:04:54;;;;;;;4.30;3.80;;;24.70;56.00;;;;;;5078454;28;20448;-40
2022/05/07 13:07:22;;;;;;;3.93;3.53;;;24.60;56.30;;;;;;5078308;28;20459;-44
2022/05/07 13:09:48;;;;;;;5.13;3.93;;;24.70;56.80;;;;;;5077832;28;20462;-40
2022/05/07 13:12:18;;;;;;;4.57;4.17;;;24.80;55.70;;;;;;5078349;28;20447;-45
2022/05/07 13:14:44;;;;;;;5.03;4.30;;;24.80;55.50;;;;;;5078416;28;20428;-44
2022/05/07 13:17:11;;;;;;;5.33;4.30;;;24.60;56.00;;;;;;5078317;28;20485;-41
2022/05/07 13:19:37;;;;;;;5.30;4.07;;;24.40;56.50;;;;;;5077718;28;20458;-43
2022/05/07 13:22:05;;;;;;;7.27;3.90;;;24.20;57.10;;;;;;5077938;28;20486;-42
2022/05/07 13:24:34;;;;;;;7.43;4.23;;;24.20;57.10;;;;;;5078174;28;20423;-47
2022/05/07 13:27:04;;;;;;;5.87;3.87;;;24.20;57.30;;;;;;5077773;28;20467;-45
2022/05/07 13:29:33;;;;;;;15.93;10.10;;;24.20;57.40;;;;;;5078034;28;20517;-45
2022/05/07 13:32:03;;;;;;;19.83;10.63;;;24.20;57.00;;;;;;5078379;28;20435;-39
2022/05/07 13:34:32;;;;;;;5.63;4.03;;;24.20;57.00;;;;;;5077529;28;20509;-43
2022/05/07 13:36:58;;;;;;;5.87;4.27;;;24.30;57.50;;;;;;5077638;28;20471;-40
2022/05/07 13:39:27;;;;;;;6.70;5.83;;;24.30;58.10;;;;;;5077558;28;20493;-42